• Join FlightAware (Why Join?)
  • Login
  • US Flag 
06:38PM EDT


 

Airport Tracker/Info


-or-


 

Live Flight TrackerFlight Track Log ✈ EGF3796 ✈ 07-May-2013 ✈ KORD - KXNA

Flight Track Log - Related Links

Times and Time Zones

All times are in EDT time to prevent confusion due to time zone crossing. See the EGF3796 flight status page for this flight to view local times or setup timezone preferences in your user account.

Time Position Orientation Groundspeed Altitude Reporting Facility
EDT Latitude Longitude Course Direction KTS MPH feet Rate Location/Type
06:30PM 41.9500 -87.8333 201° Southwest 203 234 3,000  Level Chicago TRACON
06:31PM 41.7604 -88.0000 180° South  Level FlightAware Approximate
06:32PM 41.6532 -88.0538 203° Southwest  Level FlightAware Approximate
06:32PM 41.8433 -87.7831 161° South 259 298 5,000  Level Chicago Center
06:33PM 41.5448 -88.1055 197° South  Level FlightAware Approximate
06:33PM 41.7672 -87.7772 177° South 270 311 5,500  Level Chicago Center
06:34PM 41.4344 -88.1496 197° South  Level FlightAware Approximate
06:34PM 41.6892 -87.7792 181° South 281 323 8,400  Level Chicago Center
06:35PM 41.3327 -88.1920 201° Southwest  Level FlightAware Approximate
06:35PM 41.6317 -87.8558 225° Southwest 295 339 11,100  Level Chicago Center
06:36PM 41.5747 -87.9358 226° Southwest 298 343 13,700 1,980 Climbing Chicago Center
06:37PM 41.4969 -88.0458 227° Southwest 351 404 15,300 1,740 Climbing Chicago Center
06:38PM 41.4297 -88.1422 227° Southwest 376 433 17,400 1,860 Climbing Chicago Center
06:39PM 41.3425 -88.2083 210° Southwest 379 436 19,200 1,860 Climbing Chicago Center
06:40PM 41.2208 -88.2631 199° South 387 445 21,300 1,680 Climbing Chicago Center
06:41PM 41.1161 -88.3111 199° South 398 458 22,700 1,200 Climbing Chicago Center
06:42PM 41.0061 -88.3614 199° South 416 479 23,800 1,200 Climbing Chicago Center
06:43PM 40.8936 -88.4108 198° South 427 491 25,200 1,320 Climbing Chicago Center
06:44PM 40.8008 -88.5100 219° Southwest 438 504 26,600 1,380 Climbing Chicago Center
06:45PM 40.6989 -88.6456 225° Southwest 437 503 28,100 1,140 Climbing Chicago Center
06:46PM 40.6119 -88.7606 225° Southwest 443 510 29,000 900 Climbing Chicago Center
06:47PM 40.5267 -88.8717 225° Southwest 450 518 30,000 960 Climbing Chicago Center
06:48PM 40.4367 -88.9883 225° Southwest 453 521 31,000 960 Climbing Chicago Center
06:49PM 40.3467 -89.1061 225° Southwest 454 522 32,100 960 Climbing Chicago Center
06:50PM 40.2547 -89.2258 225° Southwest 462 532 33,100 1,380 Climbing Chicago Center
06:51PM 40.1500 -89.3625 225° Southwest 444 511 35,000 1,380 Climbing Chicago Center
06:52PM 40.0650 -89.4725 225° Southwest 429 494 36,000 480 Climbing Chicago Center
06:53PM 39.9778 -89.5856 225° Southwest 441 507 36,000  Level Chicago Center
06:54PM 39.9039 -89.6783 224° Southwest 448 516 36,000  Level Kansas City Center
06:55PM 39.8122 -89.7956 225° Southwest 457 526 36,000  Level Kansas City Center
06:56PM 39.7186 -89.9158 225° Southwest 459 528 36,000 480 Level Kansas City Center
06:57PM 39.6283 -90.0292 224° Southwest 457 526 37,000 960 Climbing Kansas City Center
06:58PM 39.5406 -90.1419 225° Southwest 449 517 38,000 480 Climbing Kansas City Center
06:59PM 39.4344 -90.2750 224° Southwest 446 513 38,000  Level Kansas City Center
07:00PM 39.3467 -90.3878 225° Southwest 447 514 38,000  Level Kansas City Center
07:01PM 39.2569 -90.4992 224° Southwest 448 516 38,000  Level Kansas City Center
07:02PM 39.1678 -90.6106 224° Southwest 449 517 38,000  Level Kansas City Center
07:04PM 39.0794 -90.7203 224° Southwest 446 513 38,000  Level Kansas City Center
07:05PM 38.9706 -90.8531 223° Southwest 451 519 38,000  Level Kansas City Center
07:06PM 38.8786 -90.9678 224° Southwest 460 529 38,000  Level Kansas City Center
07:07PM 38.7853 -91.0803 223° Southwest 463 533 38,000  Level Kansas City Center
07:08PM 38.6931 -91.1936 224° Southwest 463 533 38,000  Level Kansas City Center
07:09PM 38.6000 -91.3064 223° Southwest 464 534 38,000  Level Kansas City Center
07:10PM 38.4878 -91.4439 224° Southwest 460 529 38,000  Level Kansas City Center
07:11PM 38.3939 -91.5564 223° Southwest 462 532 38,000 -120 Level Kansas City Center
07:12PM 38.3011 -91.6681 223° Southwest 459 528 37,800 -540 Descending Kansas City Center
07:13PM 38.2069 -91.7775 222° Southwest 461 531 37,000 -720 Descending Kansas City Center
07:14PM 38.1147 -91.8889 224° Southwest 457 526 36,300 -720 Descending Kansas City Center
07:15PM 38.0219 -91.9997 223° Southwest 454 522 35,500 -960 Descending Kansas City Center
07:16PM 37.9189 -92.1225 223° Southwest 452 520 34,400 -1,020 Descending Kansas City Center
07:17PM 37.8258 -92.2300 222° Southwest 454 522 33,400 -1,020 Descending Kansas City Center
07:18PM 37.7314 -92.3403 223° Southwest 462 532 32,400 -1,020 Descending Kansas City Center
07:19PM 37.6422 -92.4453 223° Southwest 462 532 31,300 -1,860 Descending Kansas City Center
07:20PM 37.5275 -92.5806 223° Southwest 466 536 28,600 -2,400 Descending Kansas City Center
07:21PM 37.4331 -92.6911 223° Southwest 462 532 26,400 -2,160 Descending Kansas City Center
07:22PM 37.3392 -92.7956 222° Southwest 452 520 24,200 -2,160 Descending Kansas City Center
07:23PM 37.2464 -92.9008 222° Southwest 448 516 22,000 -2,040 Descending Kansas City Center
07:24PM 37.1561 -93.0064 223° Southwest 445 512 20,000 -1,800 Descending Kansas City Center
07:25PM 37.0692 -93.1067 223° Southwest 431 496 18,300 -1,620 Descending Kansas City Center
07:26PM 36.9847 -93.2025 222° Southwest 416 479 16,800 -1,380 Descending Kansas City Center
07:27PM 36.8872 -93.3164 223° Southwest 402 463 15,500 -900 Descending Kansas City Center
07:28PM 36.8156 -93.4075 226° Southwest 398 458 15,000 -420 Descending Kansas City Center
07:29PM 36.7386 -93.5064 226° Southwest 398 458 14,700 -780 Descending Kansas City Center
07:30PM 36.6714 -93.6047 230° Southwest 388 447 13,500 -1,620 Descending Kansas City Center
07:31PM 36.6244 -93.7194 243° Southwest 373 429 11,400 -1,620 Descending Kansas City Center
07:32PM 36.5789 -93.8364 244° Southwest 345 397 10,200 -780 Descending Kansas City Center
07:33PM 36.5406 -93.9333 244° Southwest 322 371 9,900 -1,020 Descending Kansas City Center
07:34PM 36.5067 -94.0189 244° Southwest 289 333 8,200 -1,980 Descending Kansas City Center
07:36PM 36.4664 -94.1186 243° Southwest 273 314 5,900 -1,800 Descending Kansas City Center
07:37PM 36.4311 -94.2011 242° Southwest 272 313 4,600 -1,260 Descending Kansas City Center